createdAt,value
2018-07-05T00:00:46.022Z,26.35
2018-07-05T00:02:39.730Z,26.45
2018-07-05T00:03:39.384Z,26.45
2018-07-05T00:05:32.247Z,26.35
2018-07-05T00:06:31.709Z,26.35
2018-07-05T00:08:24.408Z,26.35
2018-07-05T00:09:24.399Z,26.45
2018-07-05T00:11:16.922Z,26.37
2018-07-05T00:12:16.730Z,25.88
2018-07-05T00:14:10.087Z,25.96
2018-07-05T00:15:10.079Z,25.98
2018-07-05T00:17:04.241Z,26.07
2018-07-05T00:18:03.090Z,26.17
2018-07-05T00:19:56.788Z,26.27
2018-07-05T00:20:56.437Z,26.27
2018-07-05T00:22:50.023Z,25.98
2018-07-05T00:23:50.137Z,25.88
2018-07-05T00:25:43.486Z,26.17
2018-07-05T00:26:43.139Z,26.27
2018-07-05T00:28:36.680Z,26.17
2018-07-05T00:29:36.472Z,26.17
2018-07-05T00:31:29.178Z,26.27
2018-07-05T00:32:29.172Z,26.07
2018-07-05T00:34:21.357Z,26.27
2018-07-05T00:35:21.171Z,25.98
2018-07-05T00:37:14.521Z,26.06
2018-07-05T00:38:14.527Z,26.16
2018-07-05T00:40:07.960Z,26.45
2018-07-05T00:41:07.373Z,26.35
2018-07-05T00:43:00.838Z,26.45
2018-07-05T00:44:00.712Z,26.26
2018-07-05T00:45:54.292Z,26.64
2018-07-05T00:46:54.054Z,26.64
2018-07-05T00:48:46.763Z,26.54
2018-07-05T00:49:46.754Z,26.64
2018-07-05T00:51:38.796Z,26.45
2018-07-05T00:52:38.609Z,26.45
2018-07-05T00:54:31.974Z,26.64
2018-07-05T00:55:31.621Z,26.64
2018-07-05T00:57:26.112Z,26.64
2018-07-05T00:58:25.298Z,26.74
2018-07-05T01:00:18.668Z,26.74
2018-07-05T01:01:18.651Z,26.74
2018-07-05T01:03:10.896Z,26.74
2018-07-05T01:04:11.015Z,26.54
2018-07-05T01:06:04.622Z,26.64
2018-07-05T01:07:04.015Z,26.74
2018-07-05T01:08:57.913Z,26.74
2018-07-05T01:09:57.703Z,26.74
2018-07-05T01:11:50.056Z,26.74
2018-07-05T01:12:50.039Z,26.64
2018-07-05T01:14:43.623Z,26.54
2018-07-05T01:15:43.389Z,26.54
2018-07-05T01:17:35.410Z,26.64
2018-07-05T01:18:35.737Z,26.45
2018-07-05T01:20:29.024Z,26.53
2018-07-05T01:21:29.095Z,26.54
2018-07-05T01:23:22.129Z,26.54
2018-07-05T01:24:22.448Z,26.54
2018-07-05T01:26:15.646Z,26.54
2018-07-05T01:27:15.470Z,26.53
2018-07-05T01:29:08.144Z,26.43
2018-07-05T01:30:08.142Z,26.45
2018-07-05T01:32:01.730Z,26.45
2018-07-05T01:33:01.141Z,26.54
2018-07-05T01:34:54.846Z,26.54
2018-07-05T01:35:54.484Z,26.54
2018-07-05T01:37:47.595Z,26.45
2018-07-05T01:38:47.173Z,26.54
2018-07-05T01:40:40.535Z,26.54
2018-07-05T01:41:40.523Z,26.64
2018-07-05T01:43:33.761Z,26.64
2018-07-05T01:44:33.865Z,26.54
2018-07-05T01:46:25.892Z,26.64
2018-07-05T01:47:26.217Z,26.84
2018-07-05T01:49:18.411Z,26.64
2018-07-05T01:50:18.555Z,26.64
2018-07-05T01:52:10.554Z,26.74
2018-07-05T01:53:10.568Z,26.74
2018-07-05T01:55:03.139Z,26.74
2018-07-05T01:56:03.246Z,26.74
2018-07-05T01:57:57.197Z,26.56
2018-07-05T01:58:56.252Z,26.56
2018-07-05T02:00:50.194Z,26.74
2018-07-05T02:01:49.954Z,26.74
2018-07-05T02:03:42.976Z,26.74
2018-07-05T02:04:43.300Z,26.74
2018-07-05T02:06:36.864Z,26.54
2018-07-05T02:07:36.307Z,26.64
2018-07-05T02:09:29.194Z,26.64
2018-07-05T02:10:29.186Z,26.64
2018-07-05T02:12:22.719Z,26.64
2018-07-05T02:13:22.202Z,26.74
2018-07-05T02:15:15.535Z,26.64
2018-07-05T02:16:15.545Z,26.64
2018-07-05T02:18:09.442Z,26.64
2018-07-05T02:19:09.229Z,26.64
2018-07-05T02:21:02.253Z,26.56
2018-07-05T02:22:02.240Z,26.74
2018-07-05T02:23:55.304Z,26.74
2018-07-05T02:24:55.454Z,26.74
2018-07-05T02:26:48.470Z,26.74
2018-07-05T02:27:48.472Z,26.74
2018-07-05T02:29:41.977Z,26.74
2018-07-05T02:30:41.142Z,26.84
2018-07-05T02:32:33.333Z,26.64
2018-07-05T02:33:33.330Z,26.74
2018-07-05T02:35:26.853Z,26.74
2018-07-05T02:36:26.671Z,26.54
2018-07-05T02:38:20.616Z,26.54
2018-07-05T02:39:20.368Z,26.35
2018-07-05T02:41:13.977Z,26.54
2018-07-05T02:42:13.729Z,26.45
2018-07-05T02:44:06.761Z,26.45
2018-07-05T02:45:07.086Z,26.74
2018-07-05T02:47:00.916Z,26.84
2018-07-05T02:48:00.087Z,27.03
2018-07-05T02:49:53.368Z,27.03
2018-07-05T02:50:52.781Z,27.03
2018-07-05T02:52:46.000Z,27.13
2018-07-05T02:53:45.777Z,27.03
2018-07-05T02:55:38.148Z,27.03
2018-07-05T02:56:38.145Z,27.03
2018-07-05T02:58:32.058Z,27.13
2018-07-05T02:59:31.836Z,27.22
2018-07-05T03:01:24.264Z,27.13
2018-07-05T03:02:24.256Z,27.22
2018-07-05T03:04:17.842Z,27.03
2018-07-05T03:05:17.604Z,27.13
2018-07-05T03:07:11.548Z,27.13
2018-07-05T03:08:10.950Z,27.03
2018-07-05T03:10:04.661Z,27.22
2018-07-05T03:11:03.964Z,27.13
2018-07-05T03:12:57.657Z,27.32
2018-07-05T03:13:57.291Z,27.32
2018-07-05T03:15:51.796Z,27.42
2018-07-05T03:16:51.002Z,27.22
2018-07-05T03:18:43.535Z,27.51
2018-07-05T03:19:43.533Z,27.32
2018-07-05T03:21:36.413Z,27.42
2018-07-05T03:22:36.198Z,27.13
2018-07-05T03:24:27.736Z,27.22
2018-07-05T03:25:27.712Z,27.22
2018-07-05T03:27:21.699Z,27.61
2018-07-05T03:28:20.928Z,27.61
2018-07-05T03:30:14.289Z,27.13
2018-07-05T03:31:13.932Z,27.13
2018-07-05T03:33:07.535Z,27.03
2018-07-05T03:34:07.636Z,27.03
2018-07-05T03:36:01.577Z,27.32
2018-07-05T03:37:00.977Z,27.61
2018-07-05T03:38:54.265Z,27.13
2018-07-05T03:39:53.966Z,27.22
2018-07-05T03:41:47.350Z,27.11
2018-07-05T03:42:47.675Z,27.11
2018-07-05T03:44:40.908Z,27.11
2018-07-05T03:45:40.663Z,27.01
2018-07-05T03:47:33.008Z,28.08
2018-07-05T03:48:33.365Z,27.50
2018-07-05T03:50:26.935Z,27.11
2018-07-05T03:51:26.740Z,27.01
2018-07-05T03:53:20.063Z,27.11
2018-07-05T03:54:20.056Z,27.11
2018-07-05T03:56:13.284Z,27.03
2018-07-05T03:57:13.049Z,27.50
2018-07-05T03:59:06.417Z,27.40
2018-07-05T04:00:06.410Z,27.50
2018-07-05T04:02:00.286Z,27.51
2018-07-05T04:03:00.100Z,27.40
2018-07-05T04:04:52.443Z,27.32
2018-07-05T04:05:52.098Z,27.50
2018-07-05T04:07:46.284Z,27.50
2018-07-05T04:08:45.788Z,27.51
2018-07-05T04:10:38.805Z,27.11
2018-07-05T04:11:38.793Z,27.13
2018-07-05T04:13:32.706Z,27.11
2018-07-05T04:14:32.126Z,27.11
2018-07-05T04:16:25.486Z,27.21
2018-07-05T04:17:25.837Z,27.21
2018-07-05T04:19:17.539Z,27.21
2018-07-05T04:20:17.678Z,27.21
2018-07-05T04:22:10.704Z,27.13
2018-07-05T04:23:11.029Z,27.13
2018-07-05T04:25:04.618Z,27.21
2018-07-05T04:26:04.381Z,27.13
2018-07-05T04:27:56.723Z,27.11
2018-07-05T04:28:56.381Z,27.11
2018-07-05T04:30:50.297Z,27.11
2018-07-05T04:31:50.062Z,27.21
2018-07-05T04:33:43.427Z,27.11
2018-07-05T04:34:43.419Z,27.11
2018-07-05T04:36:36.991Z,27.21
2018-07-05T04:37:36.764Z,27.11
2018-07-05T04:39:30.174Z,27.21
2018-07-05T04:40:29.821Z,27.11
2018-07-05T04:42:23.755Z,27.11
2018-07-05T04:43:23.181Z,27.11
2018-07-05T04:45:16.523Z,27.11
2018-07-05T04:46:16.844Z,27.11
2018-07-05T04:48:10.105Z,27.11
2018-07-05T04:49:09.860Z,27.21
2018-07-05T04:51:02.538Z,27.50
2018-07-05T04:52:02.550Z,27.11
2018-07-05T04:53:56.379Z,27.11
2018-07-05T04:54:55.532Z,27.11
2018-07-05T04:56:49.823Z,27.50
2018-07-05T04:57:49.214Z,28.18
2018-07-05T04:59:42.475Z,27.21
2018-07-05T05:00:42.248Z,27.11
2018-07-05T05:02:34.920Z,27.11
2018-07-05T05:03:34.924Z,27.21
2018-07-05T05:05:28.453Z,27.01
2018-07-05T05:06:28.275Z,27.21
2018-07-05T05:08:21.297Z,27.01
2018-07-05T05:09:21.607Z,27.11
2018-07-05T05:11:14.168Z,27.21
2018-07-05T05:12:13.628Z,27.11
2018-07-05T05:14:06.971Z,27.21
2018-07-05T05:15:07.308Z,27.50
2018-07-05T05:17:00.858Z,27.21
2018-07-05T05:18:00.316Z,27.89
2018-07-05T05:19:53.654Z,27.21
2018-07-05T05:20:53.982Z,27.50
2018-07-05T05:22:47.234Z,27.50
2018-07-05T05:23:46.993Z,27.40
2018-07-05T05:25:40.366Z,27.50
2018-07-05T05:26:40.351Z,27.40
2018-07-05T05:28:34.321Z,27.40
2018-07-05T05:29:33.722Z,27.40
2018-07-05T05:31:27.034Z,27.31
2018-07-05T05:32:27.053Z,27.60
2018-07-05T05:34:20.647Z,27.31
2018-07-05T05:35:20.715Z,27.21
2018-07-05T05:37:12.252Z,27.22
2018-07-05T05:38:12.262Z,27.42
2018-07-05T05:40:06.163Z,26.54
2018-07-05T05:41:05.606Z,26.74
2018-07-05T05:42:58.286Z,26.84
2018-07-05T05:43:57.922Z,26.74
2018-07-05T05:45:50.454Z,26.64
2018-07-05T05:46:50.591Z,25.96
2018-07-05T05:48:43.941Z,25.78
2018-07-05T05:49:43.612Z,25.78
2018-07-05T05:51:38.099Z,25.20
2018-07-05T05:52:36.954Z,25.21
2018-07-05T05:54:30.634Z,25.12
2018-07-05T05:55:30.312Z,25.02
2018-07-05T05:57:23.863Z,24.92
2018-07-05T05:58:23.652Z,24.92
2018-07-05T06:00:17.020Z,24.73
2018-07-05T06:01:17.004Z,24.73
2018-07-05T06:03:10.996Z,24.82
2018-07-05T06:04:10.347Z,24.91
2018-07-05T06:06:04.283Z,25.10
2018-07-05T06:07:04.037Z,25.40
2018-07-05T06:08:57.596Z,25.10
2018-07-05T06:09:57.031Z,25.40
2018-07-05T06:11:50.730Z,25.01
2018-07-05T06:12:50.734Z,25.20
2018-07-05T06:14:43.931Z,25.30
2018-07-05T06:15:43.725Z,25.30
2018-07-05T06:17:37.422Z,25.10
2018-07-05T06:18:37.439Z,25.40
2018-07-05T06:20:30.960Z,25.30
2018-07-05T06:21:30.774Z,25.20
2018-07-05T06:23:23.772Z,25.49
2018-07-05T06:24:23.766Z,25.40
2018-07-05T06:26:17.983Z,25.30
2018-07-05T06:27:17.467Z,25.68
2018-07-05T06:29:10.535Z,25.67
2018-07-05T06:30:10.797Z,25.77
2018-07-05T06:32:04.347Z,25.78
2018-07-05T06:33:04.148Z,25.58
2018-07-05T06:34:57.515Z,25.38
2018-07-05T06:35:57.154Z,25.48
2018-07-05T06:37:50.764Z,25.48
2018-07-05T06:38:50.845Z,25.48
2018-07-05T06:40:44.188Z,25.38
2018-07-05T06:41:44.186Z,25.67
2018-07-05T06:43:37.739Z,25.48
2018-07-05T06:44:37.520Z,25.48
2018-07-05T06:46:30.884Z,25.38
2018-07-05T06:47:30.630Z,25.38
2018-07-05T06:49:24.515Z,25.19
2018-07-05T06:50:23.902Z,25.29
2018-07-05T06:52:17.614Z,25.30
2018-07-05T06:53:17.271Z,25.19
2018-07-05T06:55:10.845Z,25.19
2018-07-05T06:56:10.603Z,25.30
2018-07-05T06:58:04.540Z,25.19
2018-07-05T06:59:04.279Z,24.99
2018-07-05T07:00:57.846Z,25.10
2018-07-05T07:01:57.622Z,25.09
2018-07-05T07:03:50.993Z,25.10
2018-07-05T07:04:50.637Z,25.01
2018-07-05T07:06:44.223Z,25.19
2018-07-05T07:07:43.985Z,25.10
2018-07-05T07:09:37.688Z,25.01
2018-07-05T07:10:37.335Z,24.91
2018-07-05T07:12:31.214Z,24.82
2018-07-05T07:13:31.020Z,24.71
2018-07-05T07:15:24.382Z,24.62
2018-07-05T07:16:24.031Z,24.62
2018-07-05T07:18:18.232Z,24.72
2018-07-05T07:19:17.393Z,24.62
2018-07-05T07:21:10.739Z,24.62
2018-07-05T07:22:11.050Z,24.52
2018-07-05T07:24:04.287Z,24.91
2018-07-05T07:25:04.071Z,24.99
2018-07-05T07:26:57.436Z,25.20
2018-07-05T07:27:57.418Z,24.91
2018-07-05T07:29:51.333Z,25.01
2018-07-05T07:30:50.762Z,25.19
2018-07-05T07:32:45.053Z,25.30
2018-07-05T07:33:44.112Z,25.59
2018-07-05T07:35:37.652Z,25.30
2018-07-05T07:36:37.468Z,25.30
2018-07-05T07:38:30.830Z,25.78
2018-07-05T07:39:30.824Z,25.77
2018-07-05T07:41:24.679Z,25.59
2018-07-05T07:42:24.486Z,25.59
2018-07-05T07:44:17.839Z,25.49
2018-07-05T07:45:17.516Z,26.07
2018-07-05T07:47:11.398Z,26.07
2018-07-05T07:48:11.191Z,25.88
2018-07-05T07:50:04.560Z,25.87
2018-07-05T07:51:04.258Z,25.98
2018-07-05T07:52:58.080Z,25.96
2018-07-05T07:53:57.895Z,26.37
2018-07-05T07:55:50.887Z,26.35
2018-07-05T07:56:51.244Z,26.45
2018-07-05T07:58:44.844Z,26.64
2018-07-05T07:59:44.614Z,26.64
2018-07-05T08:01:37.947Z,26.54
2018-07-05T08:02:37.966Z,26.74
2018-07-05T08:04:32.098Z,26.74
2018-07-05T08:05:31.839Z,26.64
2018-07-05T08:07:25.202Z,26.54
2018-07-05T08:08:25.530Z,26.74
2018-07-05T08:10:18.773Z,27.13
2018-07-05T08:11:18.596Z,26.84
2018-07-05T08:13:12.824Z,27.13
2018-07-05T08:14:11.893Z,27.32
2018-07-05T08:16:05.451Z,27.22
2018-07-05T08:17:05.578Z,27.32
2018-07-05T08:18:58.599Z,27.42
2018-07-05T08:19:58.933Z,27.03
2018-07-05T08:21:52.742Z,27.32
2018-07-05T08:22:51.939Z,27.13
2018-07-05T08:24:45.365Z,27.42
2018-07-05T08:25:45.289Z,27.51
2018-07-05T08:27:38.843Z,27.32
2018-07-05T08:28:38.634Z,27.42
2018-07-05T08:30:32.314Z,27.61
2018-07-05T08:31:32.038Z,27.61
2018-07-05T08:33:25.535Z,27.91
2018-07-05T08:34:25.311Z,27.81
2018-07-05T08:36:19.021Z,27.81
2018-07-05T08:37:19.013Z,27.91
2018-07-05T08:39:12.581Z,27.91
2018-07-05T08:40:12.010Z,28.19
2018-07-05T08:42:05.369Z,28.19
2018-07-05T08:43:05.364Z,28.29
2018-07-05T08:44:59.236Z,28.00
2018-07-05T08:45:59.042Z,28.00
2018-07-05T08:47:52.156Z,28.00
2018-07-05T08:48:52.406Z,28.19
2018-07-05T08:50:45.625Z,28.29
2018-07-05T08:51:45.729Z,28.39
2018-07-05T08:53:38.754Z,28.19
2018-07-05T08:54:38.761Z,28.19
2018-07-05T08:56:32.659Z,28.09
2018-07-05T08:57:32.437Z,28.09
2018-07-05T08:59:26.039Z,28.19
2018-07-05T09:00:25.772Z,28.49
2018-07-05T09:02:19.322Z,28.49
2018-07-05T09:03:18.786Z,28.58
2018-07-05T09:05:12.541Z,28.39
2018-07-05T09:06:12.128Z,28.49
2018-07-05T09:08:05.992Z,28.29
2018-07-05T09:09:05.801Z,28.39
2018-07-05T09:10:58.826Z,28.58
2018-07-05T09:11:58.837Z,28.68
2018-07-05T09:13:53.299Z,28.56
2018-07-05T09:14:52.215Z,28.76
2018-07-05T09:16:45.865Z,28.66
2018-07-05T09:17:46.057Z,28.56
2018-07-05T09:19:39.433Z,28.66
2018-07-05T09:20:38.885Z,28.56
2018-07-05T09:22:32.820Z,28.56
2018-07-05T09:23:32.319Z,28.56
2018-07-05T09:25:25.796Z,29.05
2018-07-05T09:26:25.892Z,28.86
2018-07-05T09:28:18.901Z,28.96
2018-07-05T09:29:19.239Z,28.96
2018-07-05T09:31:12.951Z,28.86
2018-07-05T09:32:12.594Z,28.86
2018-07-05T09:34:05.136Z,29.15
2018-07-05T09:35:05.124Z,29.15
2018-07-05T09:36:58.691Z,29.15
2018-07-05T09:37:58.455Z,29.15
2018-07-05T09:39:51.813Z,29.15
2018-07-05T09:40:52.152Z,29.24
2018-07-05T09:42:45.666Z,29.05
2018-07-05T09:43:45.159Z,28.96
2018-07-05T09:45:38.832Z,28.96
2018-07-05T09:46:38.515Z,29.24
2018-07-05T09:48:32.077Z,28.96
2018-07-05T09:49:32.191Z,29.05
2018-07-05T09:51:25.209Z,29.34
2018-07-05T09:52:25.529Z,29.05
2018-07-05T09:54:19.053Z,29.05
2018-07-05T09:55:18.880Z,28.96
2018-07-05T09:57:12.234Z,29.24
2018-07-05T09:58:11.887Z,29.05
2018-07-05T10:00:05.783Z,29.24
2018-07-05T10:01:05.573Z,28.94
2018-07-05T10:02:58.905Z,29.15
2018-07-05T10:03:58.568Z,28.96
2018-07-05T10:05:52.171Z,28.96
2018-07-05T10:06:52.251Z,29.05
2018-07-05T10:08:45.597Z,29.24
2018-07-05T10:09:45.261Z,28.96
2018-07-05T10:11:39.413Z,28.96
2018-07-05T10:12:38.967Z,29.05
2018-07-05T10:14:31.978Z,28.96
2018-07-05T10:15:31.962Z,28.96
2018-07-05T10:17:25.548Z,29.15
2018-07-05T10:18:25.630Z,28.96
2018-07-05T10:20:18.662Z,28.96
2018-07-05T10:21:18.663Z,29.15
2018-07-05T10:23:12.538Z,28.86
2018-07-05T10:24:11.998Z,28.96
2018-07-05T10:26:05.340Z,29.05
2018-07-05T10:27:05.750Z,28.86
2018-07-05T10:28:59.208Z,29.05
2018-07-05T10:29:58.704Z,29.05
2018-07-05T10:31:52.985Z,28.96
2018-07-05T10:32:52.115Z,29.05
2018-07-05T10:34:45.935Z,28.96
2018-07-05T10:35:45.396Z,28.96
2018-07-05T10:37:39.054Z,29.05
2018-07-05T10:38:39.072Z,28.96
2018-07-05T10:40:32.643Z,28.94
2018-07-05T10:41:32.421Z,29.05
2018-07-05T10:43:25.452Z,28.96
2018-07-05T10:44:25.772Z,29.05
2018-07-05T10:46:19.015Z,29.03
2018-07-05T10:47:18.990Z,29.03
2018-07-05T10:49:12.129Z,28.94
2018-07-05T10:50:12.114Z,29.05
2018-07-05T10:52:05.980Z,29.13
2018-07-05T10:53:05.452Z,29.03
2018-07-05T10:54:58.821Z,29.33
2018-07-05T10:55:59.150Z,29.13
2018-07-05T10:57:53.265Z,29.03
2018-07-05T10:58:52.477Z,28.94
2018-07-05T11:00:45.504Z,28.94
2018-07-05T11:01:45.823Z,29.03
2018-07-05T11:03:39.421Z,29.23
2018-07-05T11:04:38.855Z,29.33
2018-07-05T11:06:32.801Z,29.13
2018-07-05T11:07:32.221Z,29.13
2018-07-05T11:09:25.785Z,28.94
2018-07-05T11:10:25.543Z,29.03
2018-07-05T11:12:19.221Z,28.94
2018-07-05T11:13:19.213Z,29.33
2018-07-05T11:15:12.454Z,29.13
2018-07-05T11:16:12.245Z,28.94
2018-07-05T11:18:05.939Z,28.94
2018-07-05T11:19:05.578Z,29.03
2018-07-05T11:20:59.796Z,29.03
2018-07-05T11:21:58.912Z,29.13
2018-07-05T11:23:52.628Z,28.94
2018-07-05T11:24:52.620Z,29.03
2018-07-05T11:26:46.103Z,29.23
2018-07-05T11:27:45.945Z,29.03
2018-07-05T11:29:38.988Z,29.13
2018-07-05T11:30:38.970Z,29.33
2018-07-05T11:32:36.312Z,29.23
2018-07-05T11:33:32.333Z,29.33
2018-07-05T11:35:25.649Z,29.03
2018-07-05T11:36:26.006Z,29.13
2018-07-05T11:38:20.137Z,29.13
2018-07-05T11:39:19.013Z,29.13
2018-07-05T11:41:12.681Z,29.33
2018-07-05T11:42:12.695Z,29.13
2018-07-05T11:44:06.206Z,29.13
2018-07-05T11:45:06.037Z,28.94
2018-07-05T11:46:59.050Z,29.03
2018-07-05T11:47:59.030Z,29.23
2018-07-05T11:49:52.894Z,28.94
2018-07-05T11:50:52.715Z,28.94
2018-07-05T11:52:46.085Z,29.03
2018-07-05T11:53:46.078Z,29.23
2018-07-05T11:55:39.273Z,29.23
2018-07-05T11:56:39.083Z,29.03
2018-07-05T11:58:32.443Z,29.23
2018-07-05T11:59:32.420Z,29.13
2018-07-05T12:01:26.295Z,29.23
2018-07-05T12:02:25.776Z,29.03
2018-07-05T12:04:18.987Z,29.03
2018-07-05T12:05:18.641Z,29.13
2018-07-05T12:07:12.552Z,29.13
2018-07-05T12:08:11.994Z,29.03
2018-07-05T12:10:06.275Z,29.13
2018-07-05T12:11:05.647Z,29.13
2018-07-05T12:12:58.902Z,29.03
2018-07-05T12:13:58.671Z,29.13
2018-07-05T12:15:52.016Z,29.23
2018-07-05T12:16:52.032Z,29.23
2018-07-05T12:18:45.898Z,29.23
2018-07-05T12:19:45.693Z,29.23
2018-07-05T12:21:38.728Z,29.33
2018-07-05T12:22:39.035Z,29.33
2018-07-05T12:24:32.239Z,29.13
2018-07-05T12:25:32.389Z,29.13
2018-07-05T12:27:25.999Z,28.94
2018-07-05T12:28:25.401Z,29.23
2018-07-05T12:30:19.350Z,29.13
2018-07-05T12:31:19.090Z,29.23
2018-07-05T12:33:12.432Z,29.23
2018-07-05T12:34:12.426Z,29.23
2018-07-05T12:36:06.124Z,29.23
2018-07-05T12:37:05.759Z,29.23
2018-07-05T12:38:58.786Z,29.22
2018-07-05T12:39:58.778Z,29.43
2018-07-05T12:41:52.348Z,29.32
2018-07-05T12:42:52.154Z,29.23
2018-07-05T12:44:45.833Z,29.33
2018-07-05T12:45:45.488Z,29.33
2018-07-05T12:47:39.947Z,29.33
2018-07-05T12:48:38.832Z,29.33
2018-07-05T12:50:32.516Z,29.43
2018-07-05T12:51:32.515Z,29.43
2018-07-05T12:53:25.704Z,29.43
2018-07-05T12:54:25.851Z,29.33
2018-07-05T12:56:18.859Z,29.33
2018-07-05T12:57:19.178Z,29.33
2018-07-05T12:59:13.308Z,29.41
2018-07-05T13:00:12.541Z,29.43
2018-07-05T13:02:06.608Z,29.33
2018-07-05T13:03:05.548Z,29.32
2018-07-05T13:04:59.718Z,29.33
2018-07-05T13:05:59.211Z,29.33
2018-07-05T13:07:52.587Z,29.33
2018-07-05T13:08:52.235Z,29.32
2018-07-05T13:10:45.833Z,29.32
2018-07-05T13:11:45.593Z,29.41
2018-07-05T13:13:38.974Z,29.41
2018-07-05T13:14:38.955Z,29.32
2018-07-05T13:16:33.414Z,29.32
2018-07-05T13:17:32.303Z,29.33
2018-07-05T13:19:26.209Z,29.22
2018-07-05T13:20:25.625Z,29.13
2018-07-05T13:22:19.199Z,29.50
2018-07-05T13:23:18.951Z,29.22
2018-07-05T13:25:12.329Z,29.41
2018-07-05T13:26:12.650Z,29.22
2018-07-05T13:28:06.224Z,29.22
2018-07-05T13:29:05.996Z,29.41
2018-07-05T13:30:59.950Z,29.32
2018-07-05T13:31:59.337Z,29.22
2018-07-05T13:33:52.905Z,29.32
2018-07-05T13:34:52.358Z,29.50
2018-07-05T13:36:45.803Z,29.32
2018-07-05T13:37:46.019Z,29.43
2018-07-05T13:39:39.328Z,29.32
2018-07-05T13:40:39.385Z,29.41
2018-07-05T13:42:33.313Z,29.50
2018-07-05T13:43:32.388Z,29.33
2018-07-05T13:45:26.035Z,29.41
2018-07-05T13:46:25.739Z,29.41
2018-07-05T13:48:19.177Z,29.22
2018-07-05T13:49:19.068Z,29.22
2018-07-05T13:51:12.746Z,29.32
2018-07-05T13:52:12.762Z,29.41
2018-07-05T13:54:05.941Z,29.22
2018-07-05T13:55:06.090Z,29.41
2018-07-05T13:56:59.679Z,29.41
2018-07-05T13:57:59.117Z,29.32
2018-07-05T13:59:52.470Z,29.50
2018-07-05T14:00:52.794Z,29.50
2018-07-05T14:02:45.884Z,29.50
2018-07-05T14:03:45.319Z,29.32
2018-07-05T14:05:38.672Z,29.32
2018-07-05T14:06:38.664Z,29.32
2018-07-05T14:08:32.204Z,29.41
2018-07-05T14:09:32.352Z,29.50
2018-07-05T14:11:25.706Z,29.41
2018-07-05T14:12:25.698Z,29.41
2018-07-05T14:14:19.270Z,29.50
2018-07-05T14:15:18.720Z,29.41
2018-07-05T14:17:12.375Z,29.41
2018-07-05T14:18:12.381Z,29.60
2018-07-05T14:20:05.634Z,29.41
2018-07-05T14:21:05.736Z,29.41
2018-07-05T14:22:59.321Z,29.60
2018-07-05T14:23:59.056Z,29.50
2018-07-05T14:25:52.295Z,29.50
2018-07-05T14:26:52.424Z,29.60
2018-07-05T14:28:45.454Z,29.41
2018-07-05T14:29:45.438Z,29.60
2018-07-05T14:31:39.150Z,29.50
2018-07-05T14:32:38.774Z,29.60
2018-07-05T14:34:32.469Z,29.60
2018-07-05T14:35:32.103Z,29.60
2018-07-05T14:37:26.027Z,29.60
2018-07-05T14:38:25.472Z,29.60
2018-07-05T14:40:19.414Z,29.60
2018-07-05T14:41:18.795Z,29.50
2018-07-05T14:43:12.337Z,29.50
2018-07-05T14:44:12.145Z,29.70
2018-07-05T14:46:05.515Z,29.50
2018-07-05T14:47:05.501Z,29.50
2018-07-05T14:48:59.048Z,29.60
2018-07-05T14:49:58.856Z,29.50
2018-07-05T14:51:52.541Z,29.60
2018-07-05T14:52:52.174Z,29.41
2018-07-05T14:54:46.053Z,29.50
2018-07-05T14:55:45.880Z,29.60
2018-07-05T14:57:39.238Z,29.50
2018-07-05T14:58:38.895Z,29.70
2018-07-05T15:00:32.803Z,29.60
2018-07-05T15:01:32.575Z,29.60
2018-07-05T15:03:25.125Z,29.50
2018-07-05T15:04:25.094Z,29.60
2018-07-05T15:06:18.991Z,29.60
2018-07-05T15:07:18.426Z,29.60
2018-07-05T15:09:12.127Z,29.70
2018-07-05T15:10:11.779Z,29.80
2018-07-05T15:12:05.704Z,29.70
2018-07-05T15:13:05.137Z,29.70
2018-07-05T15:14:58.825Z,29.70
2018-07-05T15:15:58.808Z,29.70
2018-07-05T15:17:52.016Z,29.70
2018-07-05T15:18:52.157Z,29.70
2018-07-05T15:20:46.093Z,29.70
2018-07-05T15:21:45.502Z,29.70
2018-07-05T15:23:38.731Z,29.70
2018-07-05T15:24:38.489Z,29.80
2018-07-05T15:26:32.204Z,29.70
2018-07-05T15:27:32.176Z,29.70
2018-07-05T15:29:25.745Z,29.90
2018-07-05T15:30:25.523Z,29.80
2018-07-05T15:32:19.091Z,29.70
2018-07-05T15:33:18.536Z,29.80
2018-07-05T15:35:11.888Z,29.90
2018-07-05T15:36:12.229Z,29.80
2018-07-05T15:38:05.422Z,29.70
2018-07-05T15:39:05.234Z,29.90
2018-07-05T15:40:58.929Z,29.80
2018-07-05T15:41:58.925Z,29.80
2018-07-05T15:43:52.145Z,29.80
2018-07-05T15:44:51.928Z,29.80
2018-07-05T15:46:45.638Z,29.80
2018-07-05T15:47:45.250Z,29.90
2018-07-05T15:49:39.161Z,29.70
2018-07-05T15:50:38.953Z,29.90
2018-07-05T15:52:32.317Z,29.90
2018-07-05T15:53:31.985Z,29.90
2018-07-05T15:55:25.851Z,29.80
2018-07-05T15:56:25.318Z,29.90
2018-07-05T15:58:18.657Z,29.99
2018-07-05T15:59:18.994Z,29.90
2018-07-05T16:01:12.344Z,29.99
2018-07-05T16:02:12.319Z,29.99
2018-07-05T16:04:06.266Z,29.99
2018-07-05T16:05:05.335Z,29.90
2018-07-05T16:06:58.903Z,29.99
2018-07-05T16:07:58.695Z,29.80
2018-07-05T16:09:52.261Z,29.99
2018-07-05T16:10:52.053Z,29.90
2018-07-05T16:12:45.600Z,29.90
2018-07-05T16:13:45.378Z,29.99
2018-07-05T16:15:38.958Z,29.90
2018-07-05T16:16:38.729Z,29.90
2018-07-05T16:18:31.919Z,29.80
2018-07-05T16:19:31.608Z,29.80
2018-07-05T16:21:25.184Z,29.80
2018-07-05T16:22:25.254Z,29.90
2018-07-05T16:24:19.204Z,29.90
2018-07-05T16:25:18.614Z,29.99
2018-07-05T16:27:12.178Z,29.90
2018-07-05T16:28:11.974Z,30.08
2018-07-05T16:30:05.299Z,30.08
2018-07-05T16:31:04.960Z,30.18
2018-07-05T16:32:58.894Z,30.08
2018-07-05T16:33:58.659Z,30.08
2018-07-05T16:35:52.012Z,30.08
2018-07-05T16:36:51.681Z,30.18
2018-07-05T16:38:45.553Z,30.08
2018-07-05T16:39:45.012Z,30.08
2018-07-05T16:41:38.355Z,29.99
2018-07-05T16:42:38.355Z,29.99
2018-07-05T16:44:32.306Z,30.08
2018-07-05T16:45:32.037Z,30.18
2018-07-05T16:47:25.625Z,30.08
2018-07-05T16:48:25.021Z,30.08
2018-07-05T16:50:18.616Z,29.90
2018-07-05T16:51:18.388Z,30.08
2018-07-05T16:53:11.732Z,30.08
2018-07-05T16:54:11.721Z,30.08
2018-07-05T16:56:06.230Z,30.08
2018-07-05T16:57:05.084Z,29.99
2018-07-05T16:58:58.768Z,30.08
2018-07-05T16:59:58.745Z,30.08
2018-07-05T17:01:52.033Z,30.18
2018-07-05T17:02:52.111Z,30.18
2018-07-05T17:04:46.026Z,30.18
2018-07-05T17:05:45.118Z,30.18
2018-07-05T17:07:39.191Z,30.18
2018-07-05T17:08:38.453Z,30.18
2018-07-05T17:10:32.155Z,30.08
2018-07-05T17:11:32.120Z,30.18
2018-07-05T17:13:25.426Z,30.18
2018-07-05T17:14:25.533Z,30.18
2018-07-05T17:16:18.521Z,30.28
2018-07-05T17:17:18.823Z,30.28
2018-07-05T17:19:12.398Z,30.18
2018-07-05T17:20:12.175Z,30.18
2018-07-05T17:22:05.197Z,30.18
2018-07-05T17:23:05.181Z,30.08
2018-07-05T17:24:58.717Z,30.28
2018-07-05T17:25:58.530Z,30.18
2018-07-05T17:27:52.477Z,30.28
2018-07-05T17:28:51.876Z,30.18
2018-07-05T17:30:45.451Z,30.47
2018-07-05T17:31:45.215Z,30.38
2018-07-05T17:33:38.561Z,30.47
2018-07-05T17:34:38.883Z,30.28
2018-07-05T17:36:32.106Z,30.38
2018-07-05T17:37:32.246Z,30.38
2018-07-05T17:39:25.598Z,30.38
2018-07-05T17:40:25.590Z,30.47
2018-07-05T17:42:18.815Z,30.47
2018-07-05T17:43:18.602Z,30.38
2018-07-05T17:45:12.285Z,30.47
2018-07-05T17:46:12.266Z,30.38
2018-07-05T17:48:05.807Z,30.38
2018-07-05T17:49:05.628Z,30.38
2018-07-05T17:50:58.977Z,30.57
2018-07-05T17:51:58.642Z,30.38
2018-07-05T17:53:52.546Z,30.57
2018-07-05T17:54:52.287Z,30.66
2018-07-05T17:56:45.322Z,30.57
2018-07-05T17:57:45.313Z,30.66
2018-07-05T17:59:39.817Z,30.57
2018-07-05T18:00:38.659Z,30.66
2018-07-05T18:02:32.357Z,30.57
2018-07-05T18:03:32.001Z,30.57
2018-07-05T18:05:25.583Z,30.47
2018-07-05T18:06:25.341Z,30.57
2018-07-05T18:08:18.712Z,30.47
2018-07-05T18:09:19.037Z,30.57
2018-07-05T18:11:12.246Z,30.57
2018-07-05T18:12:12.046Z,30.47
2018-07-05T18:14:04.915Z,30.57
2018-07-05T18:15:04.895Z,30.66
2018-07-05T18:16:58.816Z,30.66
2018-07-05T18:17:58.566Z,30.66
2018-07-05T18:19:51.954Z,30.66
2018-07-05T18:20:51.943Z,30.57
2018-07-05T18:22:45.144Z,30.76
2018-07-05T18:23:45.286Z,30.66
2018-07-05T18:25:39.211Z,30.57
2018-07-05T18:26:38.640Z,30.55
2018-07-05T18:28:32.169Z,30.66
2018-07-05T18:29:31.640Z,30.65
2018-07-05T18:31:25.301Z,30.57
2018-07-05T18:32:24.995Z,30.65
2018-07-05T18:34:18.875Z,30.66
2018-07-05T18:35:18.649Z,30.57